sensor_id;sensor_type;location;lat;lon;timestamp;P1;durP1;ratioP1;P2;durP2;ratioP2
53694;SDS011;39588;51.124;7.190;2022-08-19T00:00:28;1.37;;;1.27;;
53694;SDS011;39588;51.124;7.190;2022-08-19T00:02:53;0.87;;;0.87;;
53694;SDS011;39588;51.124;7.190;2022-08-19T00:05:19;1.50;;;1.50;;
53694;SDS011;39588;51.124;7.190;2022-08-19T00:07:47;2.00;;;1.83;;
53694;SDS011;39588;51.124;7.190;2022-08-19T00:10:15;1.17;;;1.17;;
53694;SDS011;39588;51.124;7.190;2022-08-19T00:12:42;1.30;;;1.27;;
53694;SDS011;39588;51.124;7.190;2022-08-19T00:15:09;2.87;;;2.67;;
53694;SDS011;39588;51.124;7.190;2022-08-19T00:17:41;1.70;;;1.60;;
53694;SDS011;39588;51.124;7.190;2022-08-19T00:20:09;5.77;;;1.67;;
53694;SDS011;39588;51.124;7.190;2022-08-19T00:22:37;2.00;;;1.83;;
53694;SDS011;39588;51.124;7.190;2022-08-19T00:25:04;1.73;;;1.63;;
53694;SDS011;39588;51.124;7.190;2022-08-19T00:27:31;1.63;;;1.53;;
53694;SDS011;39588;51.124;7.190;2022-08-19T00:29:57;1.67;;;1.60;;
53694;SDS011;39588;51.124;7.190;2022-08-19T00:32:23;1.33;;;1.27;;
53694;SDS011;39588;51.124;7.190;2022-08-19T00:34:50;1.60;;;1.50;;
53694;SDS011;39588;51.124;7.190;2022-08-19T00:37:17;1.37;;;1.37;;
53694;SDS011;39588;51.124;7.190;2022-08-19T00:39:48;1.20;;;1.20;;
53694;SDS011;39588;51.124;7.190;2022-08-19T00:42:14;1.77;;;1.67;;
53694;SDS011;39588;51.124;7.190;2022-08-19T00:44:40;1.63;;;1.53;;
53694;SDS011;39588;51.124;7.190;2022-08-19T00:47:06;2.33;;;2.13;;
53694;SDS011;39588;51.124;7.190;2022-08-19T00:49:34;1.53;;;1.43;;
53694;SDS011;39588;51.124;7.190;2022-08-19T00:52:06;1.13;;;1.13;;
53694;SDS011;39588;51.124;7.190;2022-08-19T00:54:37;1.90;;;1.80;;
53694;SDS011;39588;51.124;7.190;2022-08-19T00:57:04;2.43;;;2.33;;
53694;SDS011;39588;51.124;7.190;2022-08-19T00:59:36;1.60;;;1.23;;
53694;SDS011;39588;51.124;7.190;2022-08-19T01:02:05;1.70;;;1.60;;
53694;SDS011;39588;51.124;7.190;2022-08-19T01:04:30;1.43;;;1.43;;
53694;SDS011;39588;51.124;7.190;2022-08-19T01:06:56;1.57;;;1.53;;
53694;SDS011;39588;51.124;7.190;2022-08-19T01:09:23;1.97;;;1.83;;
53694;SDS011;39588;51.124;7.190;2022-08-19T01:11:49;4.10;;;1.47;;
53694;SDS011;39588;51.124;7.190;2022-08-19T01:14:15;1.00;;;1.00;;
53694;SDS011;39588;51.124;7.190;2022-08-19T01:16:41;1.73;;;1.63;;
53694;SDS011;39588;51.124;7.190;2022-08-19T01:19:12;1.80;;;1.70;;
53694;SDS011;39588;51.124;7.190;2022-08-19T01:21:49;1.47;;;1.47;;
53694;SDS011;39588;51.124;7.190;2022-08-19T01:24:20;2.13;;;1.73;;
53694;SDS011;39588;51.124;7.190;2022-08-19T01:26:47;0.93;;;0.93;;
53694;SDS011;39588;51.124;7.190;2022-08-19T01:29:13;2.17;;;1.37;;
53694;SDS011;39588;51.124;7.190;2022-08-19T01:31:38;1.73;;;1.63;;
53694;SDS011;39588;51.124;7.190;2022-08-19T01:34:04;1.43;;;1.40;;
53694;SDS011;39588;51.124;7.190;2022-08-19T01:36:32;1.70;;;1.60;;
53694;SDS011;39588;51.124;7.190;2022-08-19T01:39:03;1.30;;;1.30;;
53694;SDS011;39588;51.124;7.190;2022-08-19T01:41:31;2.73;;;1.73;;
53694;SDS011;39588;51.124;7.190;2022-08-19T01:43:57;2.30;;;2.20;;
53694;SDS011;39588;51.124;7.190;2022-08-19T01:46:24;1.07;;;1.07;;
53694;SDS011;39588;51.124;7.190;2022-08-19T01:48:50;1.53;;;1.43;;
53694;SDS011;39588;51.124;7.190;2022-08-19T01:51:15;1.40;;;1.40;;
53694;SDS011;39588;51.124;7.190;2022-08-19T01:53:41;2.00;;;1.90;;
53694;SDS011;39588;51.124;7.190;2022-08-19T01:56:07;1.07;;;1.03;;
53694;SDS011;39588;51.124;7.190;2022-08-19T01:58:38;1.87;;;1.77;;
53694;SDS011;39588;51.124;7.190;2022-08-19T02:01:07;1.17;;;1.07;;
53694;SDS011;39588;51.124;7.190;2022-08-19T02:03:32;1.80;;;1.70;;
53694;SDS011;39588;51.124;7.190;2022-08-19T02:06:00;1.73;;;1.63;;
53694;SDS011;39588;51.124;7.190;2022-08-19T02:08:27;1.13;;;1.13;;
53694;SDS011;39588;51.124;7.190;2022-08-19T02:10:54;1.23;;;1.20;;
53694;SDS011;39588;51.124;7.190;2022-08-19T02:13:21;1.93;;;1.83;;
53694;SDS011;39588;51.124;7.190;2022-08-19T02:15:47;0.87;;;0.87;;
53694;SDS011;39588;51.124;7.190;2022-08-19T02:18:13;1.00;;;1.00;;
53694;SDS011;39588;51.124;7.190;2022-08-19T02:20:39;1.70;;;1.63;;
53694;SDS011;39588;51.124;7.190;2022-08-19T02:23:05;1.10;;;1.10;;
53694;SDS011;39588;51.124;7.190;2022-08-19T02:25:32;2.20;;;2.10;;
53694;SDS011;39588;51.124;7.190;2022-08-19T02:27:57;1.17;;;1.17;;
53694;SDS011;39588;51.124;7.190;2022-08-19T02:30:23;0.97;;;0.97;;
53694;SDS011;39588;51.124;7.190;2022-08-19T02:32:50;1.87;;;1.77;;
53694;SDS011;39588;51.124;7.190;2022-08-19T02:35:16;1.70;;;1.60;;
53694;SDS011;39588;51.124;7.190;2022-08-19T02:37:42;1.87;;;1.77;;
53694;SDS011;39588;51.124;7.190;2022-08-19T02:40:47;2.67;;;1.47;;
53694;SDS011;39588;51.124;7.190;2022-08-19T02:43:17;1.80;;;1.70;;
53694;SDS011;39588;51.124;7.190;2022-08-19T02:45:45;1.40;;;1.40;;
53694;SDS011;39588;51.124;7.190;2022-08-19T02:48:13;2.93;;;2.63;;
53694;SDS011;39588;51.124;7.190;2022-08-19T02:50:43;1.73;;;1.63;;
53694;SDS011;39588;51.124;7.190;2022-08-19T02:53:09;1.37;;;1.27;;
53694;SDS011;39588;51.124;7.190;2022-08-19T02:55:35;1.23;;;1.23;;
53694;SDS011;39588;51.124;7.190;2022-08-19T02:58:06;1.40;;;1.30;;
53694;SDS011;39588;51.124;7.190;2022-08-19T03:00:32;0.90;;;0.90;;
53694;SDS011;39588;51.124;7.190;2022-08-19T03:02:57;1.60;;;1.43;;
53694;SDS011;39588;51.124;7.190;2022-08-19T03:05:25;1.67;;;1.60;;
53694;SDS011;39588;51.124;7.190;2022-08-19T03:07:51;1.37;;;1.27;;
53694;SDS011;39588;51.124;7.190;2022-08-19T03:10:17;2.80;;;2.60;;
53694;SDS011;39588;51.124;7.190;2022-08-19T03:12:43;1.43;;;1.33;;
53694;SDS011;39588;51.124;7.190;2022-08-19T03:15:10;2.87;;;2.23;;
53694;SDS011;39588;51.124;7.190;2022-08-19T03:17:35;2.93;;;2.00;;
53694;SDS011;39588;51.124;7.190;2022-08-19T03:20:02;1.33;;;1.30;;
53694;SDS011;39588;51.124;7.190;2022-08-19T03:22:28;1.00;;;1.00;;
53694;SDS011;39588;51.124;7.190;2022-08-19T03:24:54;1.23;;;1.03;;
53694;SDS011;39588;51.124;7.190;2022-08-19T03:27:20;1.10;;;1.10;;
53694;SDS011;39588;51.124;7.190;2022-08-19T03:29:47;1.63;;;1.57;;
53694;SDS011;39588;51.124;7.190;2022-08-19T03:32:13;0.90;;;0.90;;
53694;SDS011;39588;51.124;7.190;2022-08-19T03:34:38;1.63;;;1.53;;
53694;SDS011;39588;51.124;7.190;2022-08-19T03:37:06;1.47;;;1.47;;
53694;SDS011;39588;51.124;7.190;2022-08-19T03:39:35;1.47;;;1.47;;
53694;SDS011;39588;51.124;7.190;2022-08-19T03:42:02;1.17;;;1.10;;
53694;SDS011;39588;51.124;7.190;2022-08-19T03:44:29;1.47;;;1.47;;
53694;SDS011;39588;51.124;7.190;2022-08-19T03:46:56;1.63;;;1.53;;
53694;SDS011;39588;51.124;7.190;2022-08-19T03:49:23;1.60;;;1.50;;
53694;SDS011;39588;51.124;7.190;2022-08-19T03:51:52;1.40;;;1.33;;
53694;SDS011;39588;51.124;7.190;2022-08-19T03:54:20;1.23;;;1.23;;
53694;SDS011;39588;51.124;7.190;2022-08-19T03:56:48;1.13;;;1.13;;
53694;SDS011;39588;51.124;7.190;2022-08-19T03:59:20;1.23;;;1.23;;
53694;SDS011;39588;51.124;7.190;2022-08-19T04:01:47;1.50;;;1.40;;
53694;SDS011;39588;51.124;7.190;2022-08-19T04:04:13;1.80;;;1.70;;
53694;SDS011;39588;51.124;7.190;2022-08-19T04:06:39;2.57;;;2.47;;
53694;SDS011;39588;51.124;7.190;2022-08-19T04:09:07;2.47;;;2.23;;
53694;SDS011;39588;51.124;7.190;2022-08-19T04:11:36;1.60;;;1.57;;
53694;SDS011;39588;51.124;7.190;2022-08-19T04:14:06;2.33;;;2.23;;
53694;SDS011;39588;51.124;7.190;2022-08-19T04:16:33;1.57;;;1.57;;
53694;SDS011;39588;51.124;7.190;2022-08-19T04:19:00;1.37;;;1.37;;
53694;SDS011;39588;51.124;7.190;2022-08-19T04:21:27;2.17;;;1.97;;
53694;SDS011;39588;51.124;7.190;2022-08-19T04:23:53;1.27;;;1.17;;
53694;SDS011;39588;51.124;7.190;2022-08-19T04:26:23;1.43;;;1.37;;
53694;SDS011;39588;51.124;7.190;2022-08-19T04:28:50;1.47;;;1.40;;
53694;SDS011;39588;51.124;7.190;2022-08-19T04:31:17;2.10;;;2.00;;
53694;SDS011;39588;51.124;7.190;2022-08-19T04:33:44;2.17;;;2.07;;
53694;SDS011;39588;51.124;7.190;2022-08-19T04:36:17;1.70;;;1.60;;
53694;SDS011;39588;51.124;7.190;2022-08-19T04:38:45;2.93;;;2.73;;
53694;SDS011;39588;51.124;7.190;2022-08-19T04:41:11;4.00;;;2.93;;
53694;SDS011;39588;51.124;7.190;2022-08-19T04:43:55;1.40;;;1.40;;
53694;SDS011;39588;51.124;7.190;2022-08-19T04:46:21;1.90;;;1.80;;
53694;SDS011;39588;51.124;7.190;2022-08-19T04:48:47;1.80;;;1.70;;
53694;SDS011;39588;51.124;7.190;2022-08-19T04:51:13;3.17;;;2.70;;
53694;SDS011;39588;51.124;7.190;2022-08-19T04:53:39;1.73;;;1.63;;
53694;SDS011;39588;51.124;7.190;2022-08-19T04:56:15;3.53;;;3.23;;
53694;SDS011;39588;51.124;7.190;2022-08-19T04:58:43;2.93;;;2.53;;
53694;SDS011;39588;51.124;7.190;2022-08-19T05:01:19;2.23;;;2.07;;
53694;SDS011;39588;51.124;7.190;2022-08-19T05:03:47;1.90;;;1.40;;
53694;SDS011;39588;51.124;7.190;2022-08-19T05:06:14;2.77;;;2.57;;
53694;SDS011;39588;51.124;7.190;2022-08-19T05:08:41;3.67;;;2.67;;
53694;SDS011;39588;51.124;7.190;2022-08-19T05:11:19;2.00;;;1.90;;
53694;SDS011;39588;51.124;7.190;2022-08-19T05:13:49;2.23;;;1.70;;
53694;SDS011;39588;51.124;7.190;2022-08-19T05:16:16;3.23;;;3.03;;
53694;SDS011;39588;51.124;7.190;2022-08-19T05:18:43;2.93;;;2.73;;
53694;SDS011;39588;51.124;7.190;2022-08-19T05:21:28;3.10;;;2.87;;
53694;SDS011;39588;51.124;7.190;2022-08-19T05:24:12;2.37;;;2.17;;
53694;SDS011;39588;51.124;7.190;2022-08-19T05:26:40;2.80;;;2.67;;
53694;SDS011;39588;51.124;7.190;2022-08-19T05:29:11;2.20;;;2.10;;
53694;SDS011;39588;51.124;7.190;2022-08-19T05:31:37;4.00;;;3.57;;
53694;SDS011;39588;51.124;7.190;2022-08-19T05:34:03;2.80;;;2.60;;
53694;SDS011;39588;51.124;7.190;2022-08-19T05:36:33;3.23;;;2.93;;
53694;SDS011;39588;51.124;7.190;2022-08-19T05:39:01;3.27;;;3.07;;
53694;SDS011;39588;51.124;7.190;2022-08-19T05:41:28;2.83;;;2.63;;
53694;SDS011;39588;51.124;7.190;2022-08-19T05:43:56;4.43;;;3.87;;
53694;SDS011;39588;51.124;7.190;2022-08-19T05:46:22;3.23;;;2.93;;
53694;SDS011;39588;51.124;7.190;2022-08-19T05:48:48;2.93;;;2.73;;
53694;SDS011;39588;51.124;7.190;2022-08-19T05:51:14;3.77;;;3.43;;
53694;SDS011;39588;51.124;7.190;2022-08-19T05:53:41;3.23;;;3.03;;
53694;SDS011;39588;51.124;7.190;2022-08-19T05:56:10;3.87;;;3.47;;
53694;SDS011;39588;51.124;7.190;2022-08-19T05:58:37;4.33;;;3.97;;
53694;SDS011;39588;51.124;7.190;2022-08-19T06:01:04;3.17;;;2.17;;
53694;SDS011;39588;51.124;7.190;2022-08-19T06:03:36;2.77;;;2.57;;
53694;SDS011;39588;51.124;7.190;2022-08-19T06:06:03;4.60;;;4.20;;
53694;SDS011;39588;51.124;7.190;2022-08-19T06:08:30;5.80;;;5.27;;
53694;SDS011;39588;51.124;7.190;2022-08-19T06:10:56;4.23;;;3.87;;
53694;SDS011;39588;51.124;7.190;2022-08-19T06:13:22;3.57;;;3.27;;
53694;SDS011;39588;51.124;7.190;2022-08-19T06:15:49;4.20;;;3.80;;
53694;SDS011;39588;51.124;7.190;2022-08-19T06:18:15;5.47;;;4.97;;
53694;SDS011;39588;51.124;7.190;2022-08-19T06:20:41;3.53;;;3.33;;
53694;SDS011;39588;51.124;7.190;2022-08-19T06:23:07;3.97;;;3.67;;
53694;SDS011;39588;51.124;7.190;2022-08-19T06:25:33;4.83;;;4.43;;
53694;SDS011;39588;51.124;7.190;2022-08-19T06:27:59;5.47;;;5.03;;
53694;SDS011;39588;51.124;7.190;2022-08-19T06:30:25;4.00;;;3.67;;
53694;SDS011;39588;51.124;7.190;2022-08-19T06:32:51;6.07;;;4.90;;
53694;SDS011;39588;51.124;7.190;2022-08-19T06:35:17;4.57;;;4.13;;
53694;SDS011;39588;51.124;7.190;2022-08-19T06:37:43;5.33;;;4.87;;
53694;SDS011;39588;51.124;7.190;2022-08-19T06:40:09;4.10;;;3.70;;
53694;SDS011;39588;51.124;7.190;2022-08-19T06:42:36;4.40;;;4.03;;
53694;SDS011;39588;51.124;7.190;2022-08-19T06:45:03;4.27;;;3.97;;
53694;SDS011;39588;51.124;7.190;2022-08-19T06:47:30;4.80;;;4.20;;
53694;SDS011;39588;51.124;7.190;2022-08-19T06:49:57;4.17;;;3.87;;
53694;SDS011;39588;51.124;7.190;2022-08-19T06:52:29;3.37;;;3.07;;
53694;SDS011;39588;51.124;7.190;2022-08-19T06:54:55;4.67;;;4.37;;
53694;SDS011;39588;51.124;7.190;2022-08-19T06:57:23;4.63;;;4.23;;
53694;SDS011;39588;51.124;7.190;2022-08-19T06:59:49;4.87;;;4.43;;
53694;SDS011;39588;51.124;7.190;2022-08-19T07:02:14;5.47;;;4.97;;
53694;SDS011;39588;51.124;7.190;2022-08-19T07:04:40;4.60;;;4.20;;
53694;SDS011;39588;51.124;7.190;2022-08-19T07:07:10;5.43;;;4.83;;
53694;SDS011;39588;51.124;7.190;2022-08-19T07:09:38;5.60;;;5.10;;
53694;SDS011;39588;51.124;7.190;2022-08-19T07:12:07;7.53;;;5.40;;
53694;SDS011;39588;51.124;7.190;2022-08-19T07:14:34;6.53;;;5.83;;
53694;SDS011;39588;51.124;7.190;2022-08-19T07:17:05;5.90;;;5.10;;
53694;SDS011;39588;51.124;7.190;2022-08-19T07:19:32;5.53;;;5.03;;
53694;SDS011;39588;51.124;7.190;2022-08-19T07:22:00;6.60;;;6.00;;
53694;SDS011;39588;51.124;7.190;2022-08-19T07:24:28;6.70;;;5.93;;
53694;SDS011;39588;51.124;7.190;2022-08-19T07:26:55;6.50;;;5.90;;
53694;SDS011;39588;51.124;7.190;2022-08-19T07:29:25;5.93;;;5.40;;
53694;SDS011;39588;51.124;7.190;2022-08-19T07:31:52;8.70;;;6.50;;
53694;SDS011;39588;51.124;7.190;2022-08-19T07:34:23;6.43;;;5.83;;
53694;SDS011;39588;51.124;7.190;2022-08-19T07:36:50;6.30;;;5.50;;
53694;SDS011;39588;51.124;7.190;2022-08-19T07:39:18;8.20;;;6.07;;
53694;SDS011;39588;51.124;7.190;2022-08-19T07:41:48;7.57;;;6.30;;
53694;SDS011;39588;51.124;7.190;2022-08-19T07:44:15;9.10;;;6.37;;
53694;SDS011;39588;51.124;7.190;2022-08-19T07:46:43;6.73;;;5.30;;
53694;SDS011;39588;51.124;7.190;2022-08-19T07:49:12;5.63;;;5.10;;
53694;SDS011;39588;51.124;7.190;2022-08-19T07:51:43;7.73;;;5.57;;
53694;SDS011;39588;51.124;7.190;2022-08-19T07:54:14;6.60;;;5.67;;
53694;SDS011;39588;51.124;7.190;2022-08-19T07:56:40;9.60;;;7.07;;
53694;SDS011;39588;51.124;7.190;2022-08-19T07:59:06;5.37;;;4.87;;
53694;SDS011;39588;51.124;7.190;2022-08-19T08:01:32;6.23;;;4.53;;
53694;SDS011;39588;51.124;7.190;2022-08-19T08:03:58;6.30;;;5.70;;
53694;SDS011;39588;51.124;7.190;2022-08-19T08:06:42;5.33;;;4.73;;
53694;SDS011;39588;51.124;7.190;2022-08-19T08:09:28;6.43;;;5.83;;
53694;SDS011;39588;51.124;7.190;2022-08-19T08:12:00;7.17;;;6.50;;
53694;SDS011;39588;51.124;7.190;2022-08-19T08:14:41;12.43;;;7.47;;
53694;SDS011;39588;51.124;7.190;2022-08-19T08:17:11;7.90;;;5.87;;
53694;SDS011;39588;51.124;7.190;2022-08-19T08:19:37;7.27;;;6.03;;
53694;SDS011;39588;51.124;7.190;2022-08-19T08:22:06;9.53;;;6.53;;
53694;SDS011;39588;51.124;7.190;2022-08-19T08:24:33;8.23;;;5.20;;
53694;SDS011;39588;51.124;7.190;2022-08-19T08:27:00;8.10;;;6.23;;
53694;SDS011;39588;51.124;7.190;2022-08-19T08:29:26;5.60;;;5.07;;
53694;SDS011;39588;51.124;7.190;2022-08-19T08:31:54;7.77;;;5.00;;
53694;SDS011;39588;51.124;7.190;2022-08-19T08:34:20;5.73;;;5.17;;
53694;SDS011;39588;51.124;7.190;2022-08-19T08:36:46;8.40;;;6.37;;
53694;SDS011;39588;51.124;7.190;2022-08-19T08:39:14;6.00;;;5.27;;
53694;SDS011;39588;51.124;7.190;2022-08-19T08:41:57;6.73;;;5.63;;
53694;SDS011;39588;51.124;7.190;2022-08-19T08:45:42;11.33;;;6.87;;
53694;SDS011;39588;51.124;7.190;2022-08-19T08:47:41;6.47;;;5.83;;
53694;SDS011;39588;51.124;7.190;2022-08-19T08:50:16;6.67;;;5.80;;
53694;SDS011;39588;51.124;7.190;2022-08-19T08:52:48;7.97;;;5.30;;
53694;SDS011;39588;51.124;7.190;2022-08-19T08:55:19;6.03;;;5.47;;
53694;SDS011;39588;51.124;7.190;2022-08-19T09:00:33;6.07;;;5.47;;
53694;SDS011;39588;51.124;7.190;2022-08-19T09:03:03;8.37;;;5.43;;
53694;SDS011;39588;51.124;7.190;2022-08-19T09:05:39;11.03;;;6.87;;
53694;SDS011;39588;51.124;7.190;2022-08-19T09:16:40;10.10;;;5.93;;
53694;SDS011;39588;51.124;7.190;2022-08-19T09:19:06;6.87;;;5.30;;
53694;SDS011;39588;51.124;7.190;2022-08-19T09:21:33;6.70;;;5.63;;
53694;SDS011;39588;51.124;7.190;2022-08-19T09:24:00;5.23;;;4.47;;
53694;SDS011;39588;51.124;7.190;2022-08-19T09:26:26;8.80;;;6.07;;
53694;SDS011;39588;51.124;7.190;2022-08-19T09:28:52;4.73;;;4.23;;
53694;SDS011;39588;51.124;7.190;2022-08-19T09:31:23;5.97;;;4.90;;
53694;SDS011;39588;51.124;7.190;2022-08-19T09:33:51;5.63;;;5.03;;
53694;SDS011;39588;51.124;7.190;2022-08-19T09:36:18;5.57;;;4.30;;
53694;SDS011;39588;51.124;7.190;2022-08-19T09:38:47;8.07;;;5.10;;
53694;SDS011;39588;51.124;7.190;2022-08-19T09:41:17;7.63;;;5.53;;
53694;SDS011;39588;51.124;7.190;2022-08-19T09:43:44;5.33;;;4.60;;
53694;SDS011;39588;51.124;7.190;2022-08-19T09:46:12;7.90;;;4.70;;
53694;SDS011;39588;51.124;7.190;2022-08-19T09:48:38;4.47;;;3.87;;
53694;SDS011;39588;51.124;7.190;2022-08-19T09:51:05;7.00;;;4.87;;
53694;SDS011;39588;51.124;7.190;2022-08-19T09:53:37;4.47;;;4.07;;
53694;SDS011;39588;51.124;7.190;2022-08-19T09:56:04;5.07;;;3.93;;
53694;SDS011;39588;51.124;7.190;2022-08-19T09:58:34;8.80;;;5.37;;
53694;SDS011;39588;51.124;7.190;2022-08-19T10:01:01;5.70;;;4.03;;
53694;SDS011;39588;51.124;7.190;2022-08-19T10:03:28;4.60;;;4.20;;
53694;SDS011;39588;51.124;7.190;2022-08-19T10:05:55;4.43;;;4.00;;
53694;SDS011;39588;51.124;7.190;2022-08-19T10:08:23;4.50;;;4.07;;
53694;SDS011;39588;51.124;7.190;2022-08-19T10:10:51;12.73;;;5.60;;
53694;SDS011;39588;51.124;7.190;2022-08-19T10:13:18;5.00;;;4.53;;
53694;SDS011;39588;51.124;7.190;2022-08-19T10:15:48;7.87;;;4.23;;
53694;SDS011;39588;51.124;7.190;2022-08-19T10:18:16;6.87;;;5.60;;
53694;SDS011;39588;51.124;7.190;2022-08-19T10:20:43;4.63;;;4.20;;
53694;SDS011;39588;51.124;7.190;2022-08-19T10:23:10;6.47;;;4.00;;
53694;SDS011;39588;51.124;7.190;2022-08-19T10:25:37;6.37;;;5.13;;
53694;SDS011;39588;51.124;7.190;2022-08-19T10:28:02;5.87;;;4.33;;
53694;SDS011;39588;51.124;7.190;2022-08-19T10:30:29;7.40;;;5.47;;
53694;SDS011;39588;51.124;7.190;2022-08-19T10:32:55;6.17;;;5.13;;
53694;SDS011;39588;51.124;7.190;2022-08-19T10:35:20;5.20;;;3.87;;
53694;SDS011;39588;51.124;7.190;2022-08-19T10:37:46;7.27;;;5.77;;
53694;SDS011;39588;51.124;7.190;2022-08-19T10:40:12;4.90;;;4.40;;
53694;SDS011;39588;51.124;7.190;2022-08-19T10:42:37;5.53;;;3.93;;
53694;SDS011;39588;51.124;7.190;2022-08-19T10:47:35;5.30;;;4.37;;
53694;SDS011;39588;51.124;7.190;2022-08-19T10:50:01;5.30;;;4.37;;
53694;SDS011;39588;51.124;7.190;2022-08-19T10:52:46;6.37;;;4.50;;
53694;SDS011;39588;51.124;7.190;2022-08-19T10:55:13;5.23;;;4.73;;
53694;SDS011;39588;51.124;7.190;2022-08-19T10:57:57;4.70;;;4.27;;
53694;SDS011;39588;51.124;7.190;2022-08-19T11:00:23;6.00;;;4.87;;
53694;SDS011;39588;51.124;7.190;2022-08-19T11:02:50;4.63;;;3.97;;
53694;SDS011;39588;51.124;7.190;2022-08-19T11:05:16;5.20;;;4.13;;
53694;SDS011;39588;51.124;7.190;2022-08-19T11:07:43;7.07;;;3.97;;
53694;SDS011;39588;51.124;7.190;2022-08-19T11:10:10;3.63;;;3.27;;
53694;SDS011;39588;51.124;7.190;2022-08-19T11:12:38;4.37;;;3.97;;
53694;SDS011;39588;51.124;7.190;2022-08-19T11:15:08;6.20;;;4.70;;
53694;SDS011;39588;51.124;7.190;2022-08-19T11:17:36;4.27;;;3.73;;
53694;SDS011;39588;51.124;7.190;2022-08-19T11:20:07;3.73;;;3.37;;
53694;SDS011;39588;51.124;7.190;2022-08-19T11:22:34;4.60;;;3.77;;
53694;SDS011;39588;51.124;7.190;2022-08-19T11:25:00;5.27;;;4.57;;
53694;SDS011;39588;51.124;7.190;2022-08-19T11:27:26;3.50;;;3.20;;
53694;SDS011;39588;51.124;7.190;2022-08-19T11:29:53;4.87;;;4.13;;
53694;SDS011;39588;51.124;7.190;2022-08-19T11:32:19;4.10;;;3.23;;
53694;SDS011;39588;51.124;7.190;2022-08-19T11:34:44;3.93;;;3.47;;
53694;SDS011;39588;51.124;7.190;2022-08-19T11:37:10;3.17;;;2.87;;
53694;SDS011;39588;51.124;7.190;2022-08-19T11:39:36;5.43;;;3.47;;
53694;SDS011;39588;51.124;7.190;2022-08-19T11:42:03;3.87;;;3.57;;
53694;SDS011;39588;51.124;7.190;2022-08-19T11:44:50;3.80;;;3.50;;
53694;SDS011;39588;51.124;7.190;2022-08-19T11:47:15;2.50;;;2.30;;
53694;SDS011;39588;51.124;7.190;2022-08-19T11:49:41;3.50;;;3.20;;
53694;SDS011;39588;51.124;7.190;2022-08-19T11:52:07;5.07;;;3.60;;
53694;SDS011;39588;51.124;7.190;2022-08-19T11:54:34;6.77;;;3.63;;
53694;SDS011;39588;51.124;7.190;2022-08-19T11:56:59;3.37;;;3.07;;
53694;SDS011;39588;51.124;7.190;2022-08-19T11:59:27;3.53;;;3.17;;
53694;SDS011;39588;51.124;7.190;2022-08-19T12:01:54;4.00;;;3.70;;
53694;SDS011;39588;51.124;7.190;2022-08-19T12:04:20;4.90;;;3.67;;
53694;SDS011;39588;51.124;7.190;2022-08-19T12:06:46;3.63;;;2.90;;
53694;SDS011;39588;51.124;7.190;2022-08-19T12:09:12;4.03;;;2.87;;
53694;SDS011;39588;51.124;7.190;2022-08-19T12:11:39;3.20;;;2.77;;
53694;SDS011;39588;51.124;7.190;2022-08-19T12:14:05;2.53;;;2.33;;
53694;SDS011;39588;51.124;7.190;2022-08-19T12:16:34;3.20;;;2.93;;
53694;SDS011;39588;51.124;7.190;2022-08-19T12:19:00;3.60;;;2.90;;
53694;SDS011;39588;51.124;7.190;2022-08-19T12:21:29;2.87;;;2.47;;
53694;SDS011;39588;51.124;7.190;2022-08-19T12:23:57;4.37;;;3.97;;
53694;SDS011;39588;51.124;7.190;2022-08-19T12:26:25;3.60;;;3.30;;
53694;SDS011;39588;51.124;7.190;2022-08-19T12:28:52;2.30;;;2.10;;
53694;SDS011;39588;51.124;7.190;2022-08-19T12:31:18;3.60;;;3.30;;
53694;SDS011;39588;51.124;7.190;2022-08-19T12:33:44;3.63;;;2.63;;
53694;SDS011;39588;51.124;7.190;2022-08-19T12:36:12;2.70;;;2.47;;
53694;SDS011;39588;51.124;7.190;2022-08-19T12:38:39;2.33;;;2.13;;
53694;SDS011;39588;51.124;7.190;2022-08-19T12:41:08;2.23;;;2.03;;
53694;SDS011;39588;51.124;7.190;2022-08-19T12:43:35;5.03;;;2.57;;
53694;SDS011;39588;51.124;7.190;2022-08-19T12:46:03;2.43;;;2.00;;
53694;SDS011;39588;51.124;7.190;2022-08-19T12:48:30;2.37;;;2.20;;
53694;SDS011;39588;51.124;7.190;2022-08-19T12:50:56;4.60;;;2.30;;
53694;SDS011;39588;51.124;7.190;2022-08-19T12:53:22;2.20;;;2.00;;
53694;SDS011;39588;51.124;7.190;2022-08-19T12:55:54;1.60;;;1.50;;
53694;SDS011;39588;51.124;7.190;2022-08-19T12:58:21;2.13;;;2.03;;
53694;SDS011;39588;51.124;7.190;2022-08-19T13:00:48;1.60;;;1.53;;
53694;SDS011;39588;51.124;7.190;2022-08-19T13:03:14;1.17;;;1.17;;
53694;SDS011;39588;51.124;7.190;2022-08-19T13:05:41;1.53;;;1.40;;
53694;SDS011;39588;51.124;7.190;2022-08-19T13:08:07;2.13;;;2.03;;
53694;SDS011;39588;51.124;7.190;2022-08-19T13:10:33;2.60;;;1.40;;
53694;SDS011;39588;51.124;7.190;2022-08-19T13:13:00;1.73;;;1.63;;
53694;SDS011;39588;51.124;7.190;2022-08-19T13:15:28;1.80;;;1.70;;
53694;SDS011;39588;51.124;7.190;2022-08-19T13:17:57;1.93;;;1.83;;
53694;SDS011;39588;51.124;7.190;2022-08-19T13:20:23;3.63;;;2.43;;
53694;SDS011;39588;51.124;7.190;2022-08-19T13:22:49;1.30;;;1.30;;
53694;SDS011;39588;51.124;7.190;2022-08-19T13:25:16;3.70;;;2.20;;
53694;SDS011;39588;51.124;7.190;2022-08-19T13:27:45;1.73;;;1.63;;
53694;SDS011;39588;51.124;7.190;2022-08-19T13:30:12;2.47;;;2.03;;
53694;SDS011;39588;51.124;7.190;2022-08-19T13:32:57;2.73;;;2.50;;
53694;SDS011;39588;51.124;7.190;2022-08-19T13:35:36;3.20;;;2.90;;
53694;SDS011;39588;51.124;7.190;2022-08-19T13:38:03;2.57;;;2.37;;
53694;SDS011;39588;51.124;7.190;2022-08-19T13:40:30;1.80;;;1.70;;
53694;SDS011;39588;51.124;7.190;2022-08-19T13:42:58;2.70;;;1.80;;
53694;SDS011;39588;51.124;7.190;2022-08-19T13:45:24;1.83;;;1.73;;
53694;SDS011;39588;51.124;7.190;2022-08-19T13:47:53;2.13;;;2.03;;
53694;SDS011;39588;51.124;7.190;2022-08-19T13:50:22;2.03;;;1.87;;
53694;SDS011;39588;51.124;7.190;2022-08-19T13:52:52;2.37;;;1.87;;
53694;SDS011;39588;51.124;7.190;2022-08-19T13:55:20;1.83;;;1.60;;
53694;SDS011;39588;51.124;7.190;2022-08-19T13:57:49;1.87;;;1.77;;
53694;SDS011;39588;51.124;7.190;2022-08-19T14:00:17;2.57;;;2.27;;
53694;SDS011;39588;51.124;7.190;2022-08-19T14:02:43;2.77;;;2.00;;
53694;SDS011;39588;51.124;7.190;2022-08-19T14:05:11;1.67;;;1.57;;
53694;SDS011;39588;51.124;7.190;2022-08-19T14:07:38;1.80;;;1.70;;
53694;SDS011;39588;51.124;7.190;2022-08-19T14:10:04;1.60;;;1.50;;
53694;SDS011;39588;51.124;7.190;2022-08-19T14:12:32;1.70;;;1.60;;
53694;SDS011;39588;51.124;7.190;2022-08-19T14:14:58;1.60;;;1.50;;
53694;SDS011;39588;51.124;7.190;2022-08-19T14:17:24;1.43;;;1.33;;
53694;SDS011;39588;51.124;7.190;2022-08-19T14:19:57;2.17;;;2.07;;
53694;SDS011;39588;51.124;7.190;2022-08-19T14:22:25;1.20;;;1.20;;
53694;SDS011;39588;51.124;7.190;2022-08-19T14:24:50;1.47;;;1.37;;
53694;SDS011;39588;51.124;7.190;2022-08-19T14:27:16;1.20;;;1.17;;
53694;SDS011;39588;51.124;7.190;2022-08-19T14:29:42;2.20;;;2.10;;
53694;SDS011;39588;51.124;7.190;2022-08-19T14:32:07;1.70;;;1.60;;
53694;SDS011;39588;51.124;7.190;2022-08-19T14:34:33;2.43;;;2.23;;
53694;SDS011;39588;51.124;7.190;2022-08-19T14:37:02;1.20;;;1.20;;
53694;SDS011;39588;51.124;7.190;2022-08-19T14:39:28;2.63;;;2.43;;
53694;SDS011;39588;51.124;7.190;2022-08-19T14:41:53;1.90;;;1.80;;
53694;SDS011;39588;51.124;7.190;2022-08-19T14:44:19;1.33;;;1.30;;
53694;SDS011;39588;51.124;7.190;2022-08-19T14:46:45;1.40;;;1.40;;
53694;SDS011;39588;51.124;7.190;2022-08-19T14:49:10;3.40;;;1.90;;
53694;SDS011;39588;51.124;7.190;2022-08-19T14:51:36;1.90;;;1.70;;
53694;SDS011;39588;51.124;7.190;2022-08-19T14:54:02;1.67;;;1.57;;
53694;SDS011;39588;51.124;7.190;2022-08-19T14:56:28;1.77;;;1.67;;
53694;SDS011;39588;51.124;7.190;2022-08-19T14:58:55;1.40;;;1.13;;
53694;SDS011;39588;51.124;7.190;2022-08-19T15:01:24;1.90;;;1.77;;
53694;SDS011;39588;51.124;7.190;2022-08-19T15:03:51;1.27;;;1.27;;
53694;SDS011;39588;51.124;7.190;2022-08-19T15:06:19;6.63;;;2.47;;